sensor_id;sensor_type;location;lat;lon;timestamp;pressure;altitude;pressure_sealevel;temperature;humidity
64711;BME280;51139;45.626;6.850;2023-04-20T00:00:08;81487.50;;;4.38;96.51
64711;BME280;51139;45.626;6.850;2023-04-20T00:02:36;81479.66;;;4.38;97.29
64711;BME280;51139;45.626;6.850;2023-04-20T00:05:04;81479.25;;;4.50;97.27
64711;BME280;51139;45.626;6.850;2023-04-20T00:07:29;81482.59;;;4.50;98.06
64711;BME280;51139;45.626;6.850;2023-04-20T00:09:56;81477.47;;;4.60;97.96
64711;BME280;51139;45.626;6.850;2023-04-20T00:12:21;81475.41;;;4.51;96.68
64711;BME280;51139;45.626;6.850;2023-04-20T00:14:46;81476.50;;;4.96;93.41
64711;BME280;51139;45.626;6.850;2023-04-20T00:17:12;81476.03;;;4.75;94.53
64711;BME280;51139;45.626;6.850;2023-04-20T00:19:37;81463.56;;;4.83;93.95
64711;BME280;51139;45.626;6.850;2023-04-20T00:22:02;81461.69;;;5.17;93.11
64711;BME280;51139;45.626;6.850;2023-04-20T00:24:28;81461.22;;;4.62;95.20
64711;BME280;51139;45.626;6.850;2023-04-20T00:26:53;81458.72;;;4.72;97.86
64711;BME280;51139;45.626;6.850;2023-04-20T00:29:19;81450.47;;;4.83;95.90
64711;BME280;51139;45.626;6.850;2023-04-20T00:31:44;81451.66;;;4.90;95.68
64711;BME280;51139;45.626;6.850;2023-04-20T00:34:10;81449.44;;;5.11;93.25
64711;BME280;51139;45.626;6.850;2023-04-20T00:36:35;81441.06;;;5.13;93.06
64711;BME280;51139;45.626;6.850;2023-04-20T00:39:01;81445.31;;;5.01;95.56
64711;BME280;51139;45.626;6.850;2023-04-20T00:41:26;81441.41;;;5.09;94.54
64711;BME280;51139;45.626;6.850;2023-04-20T00:43:52;81435.91;;;5.23;92.65
64711;BME280;51139;45.626;6.850;2023-04-20T00:46:19;81426.94;;;5.34;91.89
64711;BME280;51139;45.626;6.850;2023-04-20T00:48:45;81430.03;;;5.40;90.35
64711;BME280;51139;45.626;6.850;2023-04-20T00:51:12;81426.72;;;5.65;89.34
64711;BME280;51139;45.626;6.850;2023-04-20T00:53:38;81430.56;;;5.89;89.21
64711;BME280;51139;45.626;6.850;2023-04-20T00:56:03;81417.03;;;6.36;82.38
64711;BME280;51139;45.626;6.850;2023-04-20T00:58:30;81414.56;;;6.38;80.79
64711;BME280;51139;45.626;6.850;2023-04-20T01:00:56;81415.03;;;5.58;87.62
64711;BME280;51139;45.626;6.850;2023-04-20T01:03:21;81414.53;;;5.26;92.45
64711;BME280;51139;45.626;6.850;2023-04-20T01:05:47;81404.72;;;5.27;93.52
64711;BME280;51139;45.626;6.850;2023-04-20T01:08:12;81409.91;;;5.09;95.84
64711;BME280;51139;45.626;6.850;2023-04-20T01:10:38;81403.22;;;5.16;95.21
64711;BME280;51139;45.626;6.850;2023-04-20T01:13:03;81406.28;;;5.05;95.02
64711;BME280;51139;45.626;6.850;2023-04-20T01:15:28;81403.59;;;5.13;94.55
64711;BME280;51139;45.626;6.850;2023-04-20T01:17:54;81396.84;;;5.27;94.31
64711;BME280;51139;45.626;6.850;2023-04-20T01:20:22;81402.34;;;5.47;93.07
64711;BME280;51139;45.626;6.850;2023-04-20T01:22:50;81399.81;;;4.98;96.15
64711;BME280;51139;45.626;6.850;2023-04-20T01:25:16;81389.75;;;4.87;98.74
64711;BME280;51139;45.626;6.850;2023-04-20T01:27:42;81387.41;;;4.99;98.70
64711;BME280;51139;45.626;6.850;2023-04-20T01:30:08;81390.88;;;5.01;97.91
64711;BME280;51139;45.626;6.850;2023-04-20T01:32:34;81383.47;;;4.82;97.48
64711;BME280;51139;45.626;6.850;2023-04-20T01:35:00;81381.56;;;4.75;99.01
64711;BME280;51139;45.626;6.850;2023-04-20T01:37:25;81378.56;;;4.86;98.07
64711;BME280;51139;45.626;6.850;2023-04-20T01:39:51;81374.63;;;5.03;97.08
64711;BME280;51139;45.626;6.850;2023-04-20T01:42:17;81372.19;;;4.97;97.42
64711;BME280;51139;45.626;6.850;2023-04-20T01:44:42;81368.44;;;4.82;96.28
64711;BME280;51139;45.626;6.850;2023-04-20T01:47:07;81371.03;;;4.49;100.00
64711;BME280;51139;45.626;6.850;2023-04-20T01:49:33;81373.63;;;4.57;100.00
64711;BME280;51139;45.626;6.850;2023-04-20T01:51:58;81368.84;;;4.71;99.81
64711;BME280;51139;45.626;6.850;2023-04-20T01:54:23;81370.75;;;5.54;93.80
64711;BME280;51139;45.626;6.850;2023-04-20T01:56:49;81363.41;;;5.28;92.14
64711;BME280;51139;45.626;6.850;2023-04-20T01:59:14;81363.88;;;4.83;95.86
64711;BME280;51139;45.626;6.850;2023-04-20T02:01:40;81358.47;;;5.06;94.51
64711;BME280;51139;45.626;6.850;2023-04-20T02:04:05;81349.91;;;5.06;93.62
64711;BME280;51139;45.626;6.850;2023-04-20T02:06:30;81362.59;;;4.92;95.83
64711;BME280;51139;45.626;6.850;2023-04-20T02:08:57;81360.19;;;4.86;95.89
64711;BME280;51139;45.626;6.850;2023-04-20T02:11:22;81347.88;;;4.63;96.67
64711;BME280;51139;45.626;6.850;2023-04-20T02:13:47;81350.56;;;4.56;98.07
64711;BME280;51139;45.626;6.850;2023-04-20T02:16:13;81350.81;;;4.34;100.00
64711;BME280;51139;45.626;6.850;2023-04-20T02:18:40;81341.69;;;4.43;100.00
64711;BME280;51139;45.626;6.850;2023-04-20T02:21:05;81339.19;;;4.12;100.00
64711;BME280;51139;45.626;6.850;2023-04-20T02:23:31;81336.00;;;4.21;100.00
64711;BME280;51139;45.626;6.850;2023-04-20T02:25:56;81332.94;;;4.07;100.00
64711;BME280;51139;45.626;6.850;2023-04-20T02:28:22;81331.97;;;4.28;100.00
64711;BME280;51139;45.626;6.850;2023-04-20T02:30:47;81331.84;;;4.85;98.18
64711;BME280;51139;45.626;6.850;2023-04-20T02:33:12;81326.63;;;4.51;97.92
64711;BME280;51139;45.626;6.850;2023-04-20T02:35:38;81332.31;;;4.32;100.00
64711;BME280;51139;45.626;6.850;2023-04-20T02:38:03;81334.44;;;4.26;100.00
64711;BME280;51139;45.626;6.850;2023-04-20T02:40:29;81326.06;;;4.20;100.00
64711;BME280;51139;45.626;6.850;2023-04-20T02:42:54;81325.97;;;3.94;100.00
64711;BME280;51139;45.626;6.850;2023-04-20T02:45:20;81321.25;;;4.01;100.00
64711;BME280;51139;45.626;6.850;2023-04-20T02:47:45;81321.69;;;3.74;100.00
64711;BME280;51139;45.626;6.850;2023-04-20T02:50:11;81317.47;;;3.86;100.00
64711;BME280;51139;45.626;6.850;2023-04-20T02:52:36;81317.09;;;3.90;100.00
64711;BME280;51139;45.626;6.850;2023-04-20T02:55:02;81319.97;;;3.69;100.00
64711;BME280;51139;45.626;6.850;2023-04-20T02:57:27;81313.22;;;3.99;100.00
64711;BME280;51139;45.626;6.850;2023-04-20T02:59:52;81309.94;;;4.31;100.00
64711;BME280;51139;45.626;6.850;2023-04-20T03:02:18;81308.22;;;4.26;99.16
64711;BME280;51139;45.626;6.850;2023-04-20T03:04:43;81302.97;;;4.26;97.29
64711;BME280;51139;45.626;6.850;2023-04-20T03:07:09;81303.47;;;4.32;96.99
64711;BME280;51139;45.626;6.850;2023-04-20T03:09:35;81305.03;;;3.94;100.00
64711;BME280;51139;45.626;6.850;2023-04-20T03:12:01;81300.16;;;3.83;100.00
64711;BME280;51139;45.626;6.850;2023-04-20T03:14:27;81302.03;;;3.98;100.00
64711;BME280;51139;45.626;6.850;2023-04-20T03:16:52;81301.34;;;3.90;100.00
64711;BME280;51139;45.626;6.850;2023-04-20T03:19:18;81292.09;;;3.97;100.00
64711;BME280;51139;45.626;6.850;2023-04-20T03:21:43;81294.84;;;4.06;98.75
64711;BME280;51139;45.626;6.850;2023-04-20T03:24:09;81292.81;;;3.89;99.90
64711;BME280;51139;45.626;6.850;2023-04-20T03:26:34;81297.59;;;3.68;100.00
64711;BME280;51139;45.626;6.850;2023-04-20T03:29:01;81293.44;;;3.64;100.00
64711;BME280;51139;45.626;6.850;2023-04-20T03:31:26;81290.81;;;3.64;100.00
64711;BME280;51139;45.626;6.850;2023-04-20T03:33:53;81289.94;;;3.62;100.00
64711;BME280;51139;45.626;6.850;2023-04-20T03:36:18;81285.53;;;3.72;100.00
64711;BME280;51139;45.626;6.850;2023-04-20T03:38:44;81283.84;;;3.52;100.00
64711;BME280;51139;45.626;6.850;2023-04-20T03:41:09;81280.47;;;3.74;100.00
64711;BME280;51139;45.626;6.850;2023-04-20T03:43:35;81280.00;;;3.60;100.00
64711;BME280;51139;45.626;6.850;2023-04-20T03:46:00;81284.03;;;3.46;100.00
64711;BME280;51139;45.626;6.850;2023-04-20T03:48:25;81282.28;;;3.56;100.00
64711;BME280;51139;45.626;6.850;2023-04-20T03:50:52;81281.75;;;3.58;100.00
64711;BME280;51139;45.626;6.850;2023-04-20T03:53:17;81277.28;;;3.84;100.00
64711;BME280;51139;45.626;6.850;2023-04-20T03:55:42;81265.41;;;3.83;100.00
64711;BME280;51139;45.626;6.850;2023-04-20T03:58:08;81267.13;;;3.88;100.00
64711;BME280;51139;45.626;6.850;2023-04-20T04:00:33;81269.81;;;4.13;97.73
64711;BME280;51139;45.626;6.850;2023-04-20T04:02:59;81271.56;;;4.51;92.38
64711;BME280;51139;45.626;6.850;2023-04-20T04:05:24;81267.44;;;4.33;92.78
64711;BME280;51139;45.626;6.850;2023-04-20T04:07:50;81261.66;;;3.60;97.82
64711;BME280;51139;45.626;6.850;2023-04-20T04:10:16;81265.53;;;3.52;99.90
64711;BME280;51139;45.626;6.850;2023-04-20T04:12:45;81251.78;;;3.84;93.99
64711;BME280;51139;45.626;6.850;2023-04-20T04:15:11;81248.94;;;3.90;91.37
64711;BME280;51139;45.626;6.850;2023-04-20T04:17:37;81246.34;;;3.90;92.61
64711;BME280;51139;45.626;6.850;2023-04-20T04:20:04;81249.72;;;4.16;90.84
64711;BME280;51139;45.626;6.850;2023-04-20T04:22:32;81249.56;;;4.14;90.59
64711;BME280;51139;45.626;6.850;2023-04-20T04:24:57;81253.13;;;3.93;92.94
64711;BME280;51139;45.626;6.850;2023-04-20T04:27:23;81253.47;;;3.97;92.40
64711;BME280;51139;45.626;6.850;2023-04-20T04:29:48;81256.03;;;4.13;91.47
64711;BME280;51139;45.626;6.850;2023-04-20T04:32:15;81253.25;;;4.11;90.60
64711;BME280;51139;45.626;6.850;2023-04-20T04:34:41;81254.69;;;3.96;92.92
64711;BME280;51139;45.626;6.850;2023-04-20T04:37:09;81257.19;;;3.86;94.72
64711;BME280;51139;45.626;6.850;2023-04-20T04:39:35;81248.75;;;3.96;92.06
64711;BME280;51139;45.626;6.850;2023-04-20T04:42:00;81244.03;;;3.94;92.42
64711;BME280;51139;45.626;6.850;2023-04-20T04:44:27;81254.56;;;3.86;93.63
64711;BME280;51139;45.626;6.850;2023-04-20T04:46:53;81253.00;;;3.83;93.38
64711;BME280;51139;45.626;6.850;2023-04-20T04:49:18;81255.75;;;3.93;93.84
64711;BME280;51139;45.626;6.850;2023-04-20T04:51:44;81253.53;;;3.82;93.11
64711;BME280;51139;45.626;6.850;2023-04-20T04:54:11;81250.69;;;3.54;96.31
64711;BME280;51139;45.626;6.850;2023-04-20T04:56:36;81252.19;;;3.73;96.03
64711;BME280;51139;45.626;6.850;2023-04-20T04:59:02;81252.84;;;3.81;96.32
64711;BME280;51139;45.626;6.850;2023-04-20T05:01:27;81248.03;;;4.03;94.98
64711;BME280;51139;45.626;6.850;2023-04-20T05:03:53;81247.31;;;4.43;86.44
64711;BME280;51139;45.626;6.850;2023-04-20T05:06:18;81245.00;;;4.47;90.13
64711;BME280;51139;45.626;6.850;2023-04-20T05:08:45;81246.13;;;4.87;87.75
64711;BME280;51139;45.626;6.850;2023-04-20T05:11:10;81250.41;;;5.18;83.52
64711;BME280;51139;45.626;6.850;2023-04-20T05:13:35;81243.97;;;5.36;78.06
64711;BME280;51139;45.626;6.850;2023-04-20T05:16:01;81246.28;;;5.50;79.37
64711;BME280;51139;45.626;6.850;2023-04-20T05:18:26;81241.88;;;5.52;76.03
64711;BME280;51139;45.626;6.850;2023-04-20T05:20:51;81236.06;;;5.89;74.96
64711;BME280;51139;45.626;6.850;2023-04-20T05:23:18;81239.09;;;5.86;75.33
64711;BME280;51139;45.626;6.850;2023-04-20T05:25:43;81242.47;;;5.61;76.40
64711;BME280;51139;45.626;6.850;2023-04-20T05:28:08;81244.13;;;5.56;77.57
64711;BME280;51139;45.626;6.850;2023-04-20T05:30:34;81240.63;;;5.71;75.66
64711;BME280;51139;45.626;6.850;2023-04-20T05:32:59;81240.00;;;5.98;73.14
64711;BME280;51139;45.626;6.850;2023-04-20T05:35:25;81234.75;;;5.98;71.86
64711;BME280;51139;45.626;6.850;2023-04-20T05:37:50;81242.88;;;5.57;71.90
64711;BME280;51139;45.626;6.850;2023-04-20T05:40:16;81240.28;;;4.96;74.70
64711;BME280;51139;45.626;6.850;2023-04-20T05:42:41;81230.69;;;4.91;74.70
64711;BME280;51139;45.626;6.850;2023-04-20T05:45:07;81231.16;;;4.97;76.61
64711;BME280;51139;45.626;6.850;2023-04-20T05:47:33;81237.00;;;5.31;75.16
64711;BME280;51139;45.626;6.850;2023-04-20T05:49:58;81227.09;;;4.28;77.56
64711;BME280;51139;45.626;6.850;2023-04-20T05:52:24;81223.06;;;4.02;82.57
64711;BME280;51139;45.626;6.850;2023-04-20T05:54:49;81226.47;;;4.20;81.38
64711;BME280;51139;45.626;6.850;2023-04-20T05:57:14;81232.63;;;4.65;81.33
64711;BME280;51139;45.626;6.850;2023-04-20T05:59:40;81234.09;;;4.26;83.81
64711;BME280;51139;45.626;6.850;2023-04-20T06:02:06;81225.16;;;5.05;78.08
64711;BME280;51139;45.626;6.850;2023-04-20T06:04:31;81230.41;;;5.22;74.91
64711;BME280;51139;45.626;6.850;2023-04-20T06:06:57;81226.34;;;5.64;72.49
64711;BME280;51139;45.626;6.850;2023-04-20T06:09:24;81221.88;;;5.39;73.80
64711;BME280;51139;45.626;6.850;2023-04-20T06:11:50;81225.94;;;4.72;76.23
64711;BME280;51139;45.626;6.850;2023-04-20T06:14:16;81228.75;;;4.92;79.29
64711;BME280;51139;45.626;6.850;2023-04-20T06:16:42;81226.56;;;5.23;72.01
64711;BME280;51139;45.626;6.850;2023-04-20T06:19:08;81220.38;;;5.64;68.89
64711;BME280;51139;45.626;6.850;2023-04-20T06:21:34;81211.72;;;6.06;67.71
64711;BME280;51139;45.626;6.850;2023-04-20T06:24:01;81214.66;;;5.75;70.69
64711;BME280;51139;45.626;6.850;2023-04-20T06:26:26;81211.41;;;5.84;74.27
64711;BME280;51139;45.626;6.850;2023-04-20T06:28:51;81214.06;;;6.12;67.66
64711;BME280;51139;45.626;6.850;2023-04-20T06:31:18;81210.31;;;5.70;73.13
64711;BME280;51139;45.626;6.850;2023-04-20T06:33:43;81213.75;;;5.45;69.65
64711;BME280;51139;45.626;6.850;2023-04-20T06:36:09;81211.34;;;5.75;73.03
64711;BME280;51139;45.626;6.850;2023-04-20T06:38:34;81215.72;;;6.07;68.55
64711;BME280;51139;45.626;6.850;2023-04-20T06:41:00;81216.13;;;5.68;76.05
64711;BME280;51139;45.626;6.850;2023-04-20T06:43:29;81203.63;;;5.59;79.86
64711;BME280;51139;45.626;6.850;2023-04-20T06:45:54;81201.91;;;5.72;83.10
64711;BME280;51139;45.626;6.850;2023-04-20T06:48:20;81205.13;;;5.97;83.61
64711;BME280;51139;45.626;6.850;2023-04-20T06:50:49;81201.22;;;6.16;83.23
64711;BME280;51139;45.626;6.850;2023-04-20T06:53:15;81206.47;;;5.89;86.44
64711;BME280;51139;45.626;6.850;2023-04-20T06:55:41;81204.59;;;5.99;84.38
64711;BME280;51139;45.626;6.850;2023-04-20T06:58:06;81206.00;;;5.82;83.87
64711;BME280;51139;45.626;6.850;2023-04-20T07:00:32;81206.78;;;5.40;82.09
64711;BME280;51139;45.626;6.850;2023-04-20T07:02:57;81209.25;;;5.20;76.30
64711;BME280;51139;45.626;6.850;2023-04-20T07:05:22;81211.59;;;5.34;77.83
64711;BME280;51139;45.626;6.850;2023-04-20T07:07:48;81205.41;;;5.57;75.44
64711;BME280;51139;45.626;6.850;2023-04-20T07:10:14;81204.47;;;5.62;72.61
64711;BME280;51139;45.626;6.850;2023-04-20T07:12:40;81202.38;;;5.78;75.07
64711;BME280;51139;45.626;6.850;2023-04-20T07:15:07;81206.50;;;6.16;73.40
64711;BME280;51139;45.626;6.850;2023-04-20T07:17:33;81202.59;;;5.90;75.00
64711;BME280;51139;45.626;6.850;2023-04-20T07:19:59;81188.38;;;5.93;72.38
64711;BME280;51139;45.626;6.850;2023-04-20T07:22:35;81193.38;;;5.98;72.17
64711;BME280;51139;45.626;6.850;2023-04-20T07:25:02;81194.19;;;6.19;70.84
64711;BME280;51139;45.626;6.850;2023-04-20T07:27:28;81187.25;;;6.13;69.53
64711;BME280;51139;45.626;6.850;2023-04-20T07:29:55;81184.84;;;6.08;67.53
64711;BME280;51139;45.626;6.850;2023-04-20T07:32:22;81177.88;;;5.75;69.96
64711;BME280;51139;45.626;6.850;2023-04-20T07:34:47;81180.81;;;5.62;68.11
64711;BME280;51139;45.626;6.850;2023-04-20T07:37:13;81180.34;;;5.73;67.63
64711;BME280;51139;45.626;6.850;2023-04-20T07:39:38;81178.13;;;5.69;67.64
64711;BME280;51139;45.626;6.850;2023-04-20T07:42:03;81186.41;;;5.48;68.38
64711;BME280;51139;45.626;6.850;2023-04-20T07:44:29;81178.22;;;5.44;69.41
64711;BME280;51139;45.626;6.850;2023-04-20T07:46:55;81178.22;;;5.44;67.35
64711;BME280;51139;45.626;6.850;2023-04-20T07:49:22;81173.25;;;5.66;66.29
64711;BME280;51139;45.626;6.850;2023-04-20T07:51:47;81173.25;;;6.11;68.08
64711;BME280;51139;45.626;6.850;2023-04-20T07:54:13;81174.78;;;5.87;64.98
64711;BME280;51139;45.626;6.850;2023-04-20T07:56:38;81169.22;;;6.37;63.22
64711;BME280;51139;45.626;6.850;2023-04-20T07:59:03;81174.25;;;6.53;62.41
64711;BME280;51139;45.626;6.850;2023-04-20T08:01:29;81172.97;;;6.71;62.71
64711;BME280;51139;45.626;6.850;2023-04-20T08:03:55;81170.34;;;6.71;60.45
64711;BME280;51139;45.626;6.850;2023-04-20T08:06:20;81168.41;;;6.82;60.72
64711;BME280;51139;45.626;6.850;2023-04-20T08:08:46;81173.41;;;6.78;59.40
64711;BME280;51139;45.626;6.850;2023-04-20T08:11:11;81173.97;;;6.96;59.09
64711;BME280;51139;45.626;6.850;2023-04-20T08:13:37;81179.78;;;6.84;59.02
64711;BME280;51139;45.626;6.850;2023-04-20T08:16:03;81180.78;;;6.89;59.84
64711;BME280;51139;45.626;6.850;2023-04-20T08:18:28;81178.53;;;6.76;59.76
64711;BME280;51139;45.626;6.850;2023-04-20T08:20:56;81185.38;;;6.24;61.87
64711;BME280;51139;45.626;6.850;2023-04-20T08:23:22;81178.63;;;5.86;66.65
64711;BME280;51139;45.626;6.850;2023-04-20T08:25:55;81188.78;;;6.17;71.15
64711;BME280;51139;45.626;6.850;2023-04-20T08:28:22;81182.31;;;6.55;72.52
64711;BME280;51139;45.626;6.850;2023-04-20T08:30:48;81186.44;;;6.48;73.75
64711;BME280;51139;45.626;6.850;2023-04-20T08:33:14;81184.03;;;6.05;74.11
64711;BME280;51139;45.626;6.850;2023-04-20T08:35:39;81187.47;;;5.63;75.74
64711;BME280;51139;45.626;6.850;2023-04-20T08:38:05;81173.91;;;6.02;79.62
64711;BME280;51139;45.626;6.850;2023-04-20T08:40:31;81186.94;;;6.09;79.01
64711;BME280;51139;45.626;6.850;2023-04-20T08:42:57;81182.38;;;6.10;79.77
64711;BME280;51139;45.626;6.850;2023-04-20T08:45:26;81186.03;;;5.97;81.03
64711;BME280;51139;45.626;6.850;2023-04-20T08:47:51;81188.22;;;6.18;80.19
64711;BME280;51139;45.626;6.850;2023-04-20T08:50:18;81185.38;;;6.24;79.26
64711;BME280;51139;45.626;6.850;2023-04-20T08:52:44;81182.72;;;6.24;77.17
64711;BME280;51139;45.626;6.850;2023-04-20T08:55:14;81177.03;;;5.73;74.18
64711;BME280;51139;45.626;6.850;2023-04-20T08:57:40;81185.16;;;5.32;74.33
64711;BME280;51139;45.626;6.850;2023-04-20T09:00:06;81191.50;;;5.46;73.63
64711;BME280;51139;45.626;6.850;2023-04-20T09:02:32;81184.38;;;6.19;75.49
64711;BME280;51139;45.626;6.850;2023-04-20T09:05:03;81192.09;;;5.72;75.56
64711;BME280;51139;45.626;6.850;2023-04-20T09:07:29;81189.41;;;5.27;74.47
64711;BME280;51139;45.626;6.850;2023-04-20T09:09:59;81183.09;;;5.93;73.71
64711;BME280;51139;45.626;6.850;2023-04-20T09:12:25;81180.56;;;5.85;72.02
64711;BME280;51139;45.626;6.850;2023-04-20T09:14:52;81193.75;;;5.32;74.81
64711;BME280;51139;45.626;6.850;2023-04-20T09:17:30;81191.78;;;5.68;78.64
64711;BME280;51139;45.626;6.850;2023-04-20T09:19:56;81191.91;;;6.05;78.24
64711;BME280;51139;45.626;6.850;2023-04-20T09:22:29;81191.06;;;5.85;77.95
64711;BME280;51139;45.626;6.850;2023-04-20T09:24:55;81181.25;;;6.03;77.95
64711;BME280;51139;45.626;6.850;2023-04-20T09:27:20;81182.63;;;6.04;80.24
64711;BME280;51139;45.626;6.850;2023-04-20T09:30:00;81191.72;;;6.21;78.96
64711;BME280;51139;45.626;6.850;2023-04-20T09:32:27;81182.69;;;5.96;79.56
64711;BME280;51139;45.626;6.850;2023-04-20T09:34:53;81183.53;;;6.54;78.89
64711;BME280;51139;45.626;6.850;2023-04-20T09:37:19;81196.88;;;6.01;82.24
64711;BME280;51139;45.626;6.850;2023-04-20T09:39:45;81192.31;;;6.29;87.92
64711;BME280;51139;45.626;6.850;2023-04-20T09:42:12;81191.22;;;6.32;90.31
64711;BME280;51139;45.626;6.850;2023-04-20T09:44:38;81192.16;;;6.54;85.83
64711;BME280;51139;45.626;6.850;2023-04-20T09:47:05;81190.19;;;6.55;84.25
64711;BME280;51139;45.626;6.850;2023-04-20T09:49:31;81196.09;;;6.08;83.63
64711;BME280;51139;45.626;6.850;2023-04-20T09:51:57;81201.13;;;6.51;89.78
64711;BME280;51139;45.626;6.850;2023-04-20T09:54:25;81198.16;;;6.10;88.36
64711;BME280;51139;45.626;6.850;2023-04-20T09:56:52;81198.13;;;6.27;90.70
64711;BME280;51139;45.626;6.850;2023-04-20T09:59:20;81200.50;;;6.33;91.45
64711;BME280;51139;45.626;6.850;2023-04-20T10:01:45;81202.59;;;6.35;92.31
64711;BME280;51139;45.626;6.850;2023-04-20T10:04:11;81196.31;;;6.03;90.77
64711;BME280;51139;45.626;6.850;2023-04-20T10:06:39;81200.09;;;6.09;92.38
64711;BME280;51139;45.626;6.850;2023-04-20T10:09:06;81199.97;;;5.90;92.31
64711;BME280;51139;45.626;6.850;2023-04-20T10:11:38;81208.00;;;5.74;93.25
64711;BME280;51139;45.626;6.850;2023-04-20T10:14:17;81202.13;;;5.66;94.20
64711;BME280;51139;45.626;6.850;2023-04-20T10:17:04;81204.75;;;6.01;93.43
64711;BME280;51139;45.626;6.850;2023-04-20T10:19:43;81203.34;;;6.00;93.01
64711;BME280;51139;45.626;6.850;2023-04-20T10:22:11;81207.59;;;5.95;92.59
64711;BME280;51139;45.626;6.850;2023-04-20T10:24:37;81209.16;;;5.81;95.48
64711;BME280;51139;45.626;6.850;2023-04-20T10:27:14;81209.81;;;5.36;95.59
64711;BME280;51139;45.626;6.850;2023-04-20T10:29:40;81210.81;;;4.80;98.30
64711;BME280;51139;45.626;6.850;2023-04-20T10:32:06;81198.09;;;3.93;98.19
64711;BME280;51139;45.626;6.850;2023-04-20T10:34:35;81188.63;;;4.99;98.81
64711;BME280;51139;45.626;6.850;2023-04-20T10:37:12;81191.41;;;5.54;93.61
64711;BME280;51139;45.626;6.850;2023-04-20T10:39:46;81192.97;;;5.57;92.59
64711;BME280;51139;45.626;6.850;2023-04-20T10:42:12;81190.88;;;5.20;93.82
64711;BME280;51139;45.626;6.850;2023-04-20T10:44:54;81191.34;;;5.26;93.74
64711;BME280;51139;45.626;6.850;2023-04-20T10:47:27;81184.25;;;4.33;99.36
64711;BME280;51139;45.626;6.850;2023-04-20T10:49:53;81184.03;;;4.39;100.00
64711;BME280;51139;45.626;6.850;2023-04-20T10:52:32;81185.63;;;5.03;100.00
64711;BME280;51139;45.626;6.850;2023-04-20T10:54:58;81188.13;;;4.24;100.00
64711;BME280;51139;45.626;6.850;2023-04-20T10:57:24;81183.03;;;4.77;97.65
64711;BME280;51139;45.626;6.850;2023-04-20T10:59:49;81185.06;;;4.87;94.46
64711;BME280;51139;45.626;6.850;2023-04-20T11:02:14;81181.16;;;4.95;94.17
64711;BME280;51139;45.626;6.850;2023-04-20T11:04:40;81183.47;;;5.44;96.78
64711;BME280;51139;45.626;6.850;2023-04-20T11:07:08;81186.75;;;4.74;91.71
64711;BME280;51139;45.626;6.850;2023-04-20T11:09:35;81190.25;;;4.94;95.31
64711;BME280;51139;45.626;6.850;2023-04-20T11:12:06;81194.03;;;5.01;95.93
64711;BME280;51139;45.626;6.850;2023-04-20T11:14:35;81184.38;;;5.57;92.91
64711;BME280;51139;45.626;6.850;2023-04-20T11:17:04;81174.63;;;5.67;88.84
64711;BME280;51139;45.626;6.850;2023-04-20T11:19:32;81184.69;;;4.47;96.98
64711;BME280;51139;45.626;6.850;2023-04-20T11:21:59;81189.34;;;5.17;97.95
64711;BME280;51139;45.626;6.850;2023-04-20T11:24:30;81177.56;;;4.15;94.55
64711;BME280;51139;45.626;6.850;2023-04-20T11:26:56;81176.97;;;5.10;96.93
64711;BME280;51139;45.626;6.850;2023-04-20T11:29:38;81178.38;;;5.91;93.51
64711;BME280;51139;45.626;6.850;2023-04-20T11:32:04;81168.44;;;5.72;89.72
64711;BME280;51139;45.626;6.850;2023-04-20T11:34:31;81168.59;;;6.19;86.75
64711;BME280;51139;45.626;6.850;2023-04-20T11:37:03;81156.69;;;6.18;91.81
64711;BME280;51139;45.626;6.850;2023-04-20T11:39:29;81162.84;;;4.45;100.00
64711;BME280;51139;45.626;6.850;2023-04-20T11:41:54;81157.94;;;4.66;96.54
64711;BME280;51139;45.626;6.850;2023-04-20T11:44:22;81145.88;;;5.69;94.21
64711;BME280;51139;45.626;6.850;2023-04-20T11:46:48;81148.56;;;5.16;97.70
64711;BME280;51139;45.626;6.850;2023-04-20T11:49:17;81137.41;;;5.88;100.00
64711;BME280;51139;45.626;6.850;2023-04-20T11:51:43;81125.09;;;6.08;97.65
64711;BME280;51139;45.626;6.850;2023-04-20T11:54:09;81128.59;;;4.60;96.64
64711;BME280;51139;45.626;6.850;2023-04-20T11:56:35;81124.56;;;4.85;91.70
64711;BME280;51139;45.626;6.850;2023-04-20T11:59:01;81124.13;;;5.86;88.01
64711;BME280;51139;45.626;6.850;2023-04-20T12:01:26;81118.88;;;5.41;99.92
64711;BME280;51139;45.626;6.850;2023-04-20T12:03:52;81123.56;;;5.60;100.00
64711;BME280;51139;45.626;6.850;2023-04-20T12:06:19;81128.41;;;5.19;100.00
64711;BME280;51139;45.626;6.850;2023-04-20T12:08:45;81127.88;;;5.20;100.00
64711;BME280;51139;45.626;6.850;2023-04-20T12:11:12;81128.94;;;5.35;100.00
64711;BME280;51139;45.626;6.850;2023-04-20T12:13:38;81117.72;;;5.52;100.00
64711;BME280;51139;45.626;6.850;2023-04-20T12:16:03;81124.50;;;5.55;100.00
64711;BME280;51139;45.626;6.850;2023-04-20T12:18:29;81124.81;;;5.59;98.36
64711;BME280;51139;45.626;6.850;2023-04-20T12:20:54;81127.94;;;5.30;100.00
64711;BME280;51139;45.626;6.850;2023-04-20T12:23:20;81135.81;;;5.30;100.00
64711;BME280;51139;45.626;6.850;2023-04-20T12:25:45;81131.59;;;4.14;99.91
64711;BME280;51139;45.626;6.850;2023-04-20T12:28:10;81128.41;;;4.66;100.00
64711;BME280;51139;45.626;6.850;2023-04-20T12:30:36;81135.25;;;4.79;100.00
64711;BME280;51139;45.626;6.850;2023-04-20T12:33:03;81141.94;;;4.97;100.00
64711;BME280;51139;45.626;6.850;2023-04-20T12:35:28;81139.75;;;5.39;100.00
64711;BME280;51139;45.626;6.850;2023-04-20T12:37:54;81141.75;;;5.48;100.00
64711;BME280;51139;45.626;6.850;2023-04-20T12:40:20;81141.78;;;5.76;98.50
64711;BME280;51139;45.626;6.850;2023-04-20T12:42:45;81152.06;;;5.64;88.73
64711;BME280;51139;45.626;6.850;2023-04-20T12:45:11;81155.50;;;5.39;88.41
64711;BME280;51139;45.626;6.850;2023-04-20T12:47:37;81167.56;;;5.24;100.00
64711;BME280;51139;45.626;6.850;2023-04-20T12:50:02;81172.97;;;5.09;100.00
64711;BME280;51139;45.626;6.850;2023-04-20T12:52:28;81175.59;;;5.26;98.08
64711;BME280;51139;45.626;6.850;2023-04-20T12:54:53;81181.31;;;5.33;96.93
64711;BME280;51139;45.626;6.850;2023-04-20T12:57:19;81184.91;;;5.20;97.26
64711;BME280;51139;45.626;6.850;2023-04-20T12:59:44;81190.56;;;5.34;94.13
64711;BME280;51139;45.626;6.850;2023-04-20T13:02:12;81198.19;;;5.04;97.85
64711;BME280;51139;45.626;6.850;2023-04-20T13:04:38;81202.81;;;4.96;96.61